SBBVSBPJ

Guest
Details From SBBV - Boa Vista Intl
To SBPJ - Tocantins
Flight Number -
Tags Generated
Created
Modified
Stats Distance 1,081 nm / 2,001 km
Max Altitude 0 ft / 0 m
Waypoints 4
Social Downloads 3
Likes 0
Share VATSIM

Download

Looking for another format? Having issues loading an existing format? Contact us
Advertisement - Login to hide

Notes

Generated

Route

SBBV LODOK PMS SBPJ

ID Type Via Altitude Latitude Longitude Leg Dist Tot Dist Heading (true) Name
O SBBV APT - 0 ft / 0 m 2.84077˚ -60.70090˚ - 0 nm - -
LODOK FIX - 0 ft / 0 m -0.66600˚ -57.78800˚ 273 nm 273 nm 140° / 140° -
PMS NDB - 0 ft / 0 m -10.29069˚ -48.36586˚ 806 nm 1080 nm 136° / 135° PALMAS NDB
O SBPJ APT - 0 ft / 0 m -10.28524˚ -48.36642˚ 0 nm 1080 nm 354° / 354° -

Altitude Profile

Advertisement - Login to hide

Weather


0- 5 10 15 20 25 30 35+ Temperature / ° C

Clouds and Precipitation
Forecast for 2017-12-17 12:00 UTC. Updated an hour ago

Ground ~20,000 ft ~40,000 ft Winds

SBBV

Details ICAO SBBV (BVB)
Name Boa Vista Intl
Region Brazil
Timezone America/Boa_Vista (UTC-4.0)
Stats Elevation 275 ft / 84 m (AMSL)
Location 2.846311° -60.690068°
Runways 1
Magnetic Variation 15.419° W

METAR

SBBV 171000Z 09009KT CAVOK 25/21 Q1011

Decode

TAF

TAF SBBV 170400Z 1706/1806 10010KT CAVOK TN24/1707Z TX32/1718Z BECMG 1713/1715 09015KT 9999 SCT030 BECMG 1717/1719 13008KT BKN040 FEW045TCU BECMG 1723/1801 09005KT FEW030 RMK PCQ

Decode

Departure Runways

ID Width Length Bearing (true) Bearing (mag) Surface Threshold Offset Overrun Length
08 148 ft / 45 m 8,871 ft / 2,704 m 62.88° 78.30° Asphalt 300 ft / 91 m 0 ft / 0 m
26 148 ft / 45 m 8,871 ft / 2,704 m 242.88° 258.30° Asphalt 300 ft / 91 m 0 ft / 0 m

SBPJ

Details ICAO SBPJ (PMW)
Name Tocantins
Region Brazil
Timezone America/Araguaina (UTC-3.0)
Stats Elevation 774 ft / 236 m (AMSL)
Location -10.291524° -48.356972°
Runways 1
Magnetic Variation 21.253° W

METAR

SBPJ 170900Z 12005KT 9999 FEW025 SCT100 22/22 Q1011

Decode

TAF

TAF SBPJ 170200Z 1706/1718 28002KT 9999 FEW014 FEW030TCU TN24/1706Z TX30/1717Z PROB30 1708/1712 7000 TSRA SCT010 FEW030CB FM171600 20007KT SCT025 FEW030TCU RMK PDS

Decode

Destination Runways

ID Width Length Bearing (true) Bearing (mag) Surface Threshold Offset Overrun Length
14 148 ft / 45 m 8,194 ft / 2,497 m 124.06° 145.31° Asphalt 0 ft / 0 m 0 ft / 0 m
32 148 ft / 45 m 8,194 ft / 2,497 m 304.06° 325.31° Asphalt 0 ft / 0 m 0 ft / 0 m

Popular Alternatives